Chaves — CQMY — position and weather

sailwx.info

Track history (hours):
 
Tides and Currents Weather Stations Pressure Air Temp Water Temp Dewpoint Dewpoint Depression Visibility Wind Speed Wind Dir Waves Ship Positions

Chaves

Last reported at 2017-Aug-21 03:10 UTC. Time now 2017-Aug-23 11:56 UTC.
Position N 36°44' E 001°02'.

Length 90 m; draft 6 m.

Type: Ship. MMSI: 255803660.

Date/timePositionNaut miles runAvg speedWind from/ knotsBaromVisibWave heightAir tempDewpointWater temp
2017-Aug-21 03:10N 36°44' E 001°02'4 9.6
2017-Aug-21 02:47N 36°44' E 000°58'4 9.3
2017-Aug-21 02:22N 36°43' E 000°53'3 9.2
2017-Aug-21 02:00N 36°43' E 000°48'7 9.3
2017-Aug-21 01:14N 36°42' E 000°40'2 9.3
2017-Aug-21 00:59N 36°42' E 000°37'6 9.0
2017-Aug-21 00:19N 36°41' E 000°29'3 8.7
2017-Aug-21 00:00N 36°41' E 000°26'4 8.5
2017-Aug-20 23:29N 36°40' E 000°20'4 8.2
2017-Aug-20 23:00N 36°40' E 000°16'264 9.2
2017-Aug-19 18:22N 36°01' W 005°08'4 9.6
2017-Aug-19 18:00N 36°00' W 005°13'5 9.9
2017-Aug-19 17:31N 35°57' W 005°17'4 6.8
2017-Aug-19 16:59N 35°54' W 005°19'0 0.1
2017-Aug-19 16:29N 35°54' W 005°19'0 0.0
2017-Aug-19 15:59N 35°54' W 005°19'0 0.0
2017-Aug-19 15:29N 35°54' W 005°19'0 0.0
2017-Aug-19 14:59N 35°54' W 005°19'0 0.0
2017-Aug-19 13:59N 35°54' W 005°19'0 0.0
2017-Aug-19 13:29N 35°54' W 005°19'1 1.1
2017-Aug-19 13:00N 35°54' W 005°18'2 3.0
2017-Aug-19 12:30N 35°55' W 005°18'0 0.8
2017-Aug-19 12:00N 35°55' W 005°18'4 8.9
2017-Aug-19 11:30N 35°57' W 005°23'510.5
2017-Aug-19 11:00N 35°56' W 005°30'60 9.0
2017-Aug-19 04:24N 36°04' W 006°43'410.7
2017-Aug-19 04:00N 36°06' W 006°48'510.8
2017-Aug-19 03:30N 36°08' W 006°54'510.6
2017-Aug-19 03:00N 36°09' W 007°01'710.4
2017-Aug-19 02:18N 36°11' W 007°09'310.2
2017-Aug-19 02:00N 36°11' W 007°13'7 9.9
2017-Aug-19 01:16N 36°13' W 007°22'3 9.9
2017-Aug-19 00:56N 36°14' W 007°26'510.2
2017-Aug-19 00:28N 36°15' W 007°31'510.3
2017-Aug-19 00:00N 36°16' W 007°37'510.1
2017-Aug-18 23:30N 36°18' W 007°43'510.1
2017-Aug-18 23:00N 36°19' W 007°49'5 9.9
2017-Aug-18 22:30N 36°20' W 007°55'1010.0
2017-Aug-18 21:29N 36°22' W 008°08'6 9.8
2017-Aug-18 20:54N 36°23' W 008°15'4 9.7
2017-Aug-18 20:30N 36°24' W 008°19'7 9.9
2017-Aug-18 19:48N 36°25' W 008°28'3 9.9
2017-Aug-18 19:30N 36°26' W 008°31'5 9.9
2017-Aug-18 19:00N 36°27' W 008°37'810.0
2017-Aug-18 18:11N 36°29' W 008°47'2 9.9
2017-Aug-18 18:00N 36°29' W 008°49'5 9.9
2017-Aug-18 17:30N 36°30' W 008°55'5 9.9
2017-Aug-18 17:00N 36°31' W 009°01'510.3
2017-Aug-18 16:29N 36°32' W 009°08'1410.1
2017-Aug-18 15:07N 36°40' W 009°23'110.6
2017-Aug-18 15:00N 36°41' W 009°24'610.6
2017-Aug-18 14:27N 36°45' W 009°29'1410.3
2017-Aug-18 13:07N 36°58' W 009°35'31 9.8
2017-Aug-18 09:58N 37°27' W 009°46'5 9.8
2017-Aug-18 09:25N 37°33' W 009°47'5 9.5
2017-Aug-18 08:55N 37°37' W 009°48'26 9.6
2017-Aug-18 06:13N 38°03' W 009°54'2 9.4
2017-Aug-18 06:00N 38°05' W 009°55'5 9.4
2017-Aug-18 05:29N 38°10' W 009°56'4 9.3
2017-Aug-18 05:00N 38°14' W 009°58'5 9.3
2017-Aug-18 04:30N 38°18' W 009°59'5 9.3
2017-Aug-18 03:58N 38°23' W 010°01'5 9.6
2017-Aug-18 03:30N 38°28' W 010°02'510.1
2017-Aug-18 03:00N 38°32' W 010°04'7 9.9
2017-Aug-18 02:20N 38°39' W 010°05'310.0
2017-Aug-18 02:00N 38°42' W 010°06'5 9.8
2017-Aug-18 01:30N 38°47' W 010°06'510.1
2017-Aug-18 01:00N 38°52' W 010°06'510.1
2017-Aug-18 00:30N 38°56' W 010°02'5 9.9
2017-Aug-18 00:00N 39°00' W 009°59'5 9.7
2017-Aug-17 23:30N 39°04' W 009°55'5 9.9
2017-Aug-17 23:00N 39°08' W 009°51'5 9.7
2017-Aug-17 22:30N 39°12' W 009°47'6 9.8
2017-Aug-17 21:55N 39°17' W 009°43'410.1
2017-Aug-17 21:30N 39°21' W 009°43'510.2
2017-Aug-17 21:00N 39°26' W 009°43'9 9.5
2017-Aug-17 20:04N 39°34' W 009°38'110.2
2017-Aug-17 20:00N 39°34' W 009°37'910.2
2017-Aug-17 19:10N 39°41' W 009°30'410.0
2017-Aug-17 18:46N 39°44' W 009°27'310.1
2017-Aug-17 18:30N 39°46' W 009°25'510.1
2017-Aug-17 18:00N 39°50' W 009°20'5 9.9
2017-Aug-17 17:30N 39°54' W 009°16'1710.0
2017-Aug-17 15:50N 40°06' W 009°02'  
2017-Aug-15 03:28N 39°45' W 009°23'510.4
2017-Aug-15 03:00N 39°42' W 009°28'810.4
2017-Aug-15 02:15N 39°36' W 009°35'510.8
2017-Aug-15 01:46N 39°32' W 009°40'310.9
2017-Aug-15 01:30N 39°30' W 009°42'510.8
2017-Aug-15 01:00N 39°25' W 009°43'510.7
2017-Aug-15 00:30N 39°20' W 009°43'510.1
2017-Aug-15 00:00N 39°14' W 009°43'510.7
2017-Aug-14 23:30N 39°09' W 009°43'510.5
2017-Aug-14 23:01N 39°04' W 009°43'510.6
2017-Aug-14 22:30N 38°59' W 009°43'510.4
2017-Aug-14 22:00N 38°53' W 009°43'510.4
2017-Aug-14 21:30N 38°48' W 009°43'510.1
2017-Aug-14 21:00N 38°43' W 009°42'5 9.9
2017-Aug-14 20:30N 38°38' W 009°41'510.9
2017-Aug-14 20:00N 38°38' W 009°34'510.8
2017-Aug-14 19:30N 38°37' W 009°27'5 9.9
2017-Aug-14 19:00N 38°38' W 009°21'5 9.2
2017-Aug-14 18:30N 38°41' W 009°16'4 8.1
2017-Aug-14 18:00N 38°41' W 009°11'4 7.3
2017-Aug-14 17:30N 38°43' W 009°07'0 0.2
2017-Aug-14 16:55N 38°43' W 009°07'0 0.0
2017-Aug-14 16:28N 38°43' W 009°07'0 0.0
2017-Aug-14 15:58N 38°43' W 009°07'0 0.0
2017-Aug-14 15:28N 38°43' W 009°07'0 0.0
2017-Aug-14 14:58N 38°43' W 009°07'0 0.0
2017-Aug-14 14:28N 38°43' W 009°07'0 0.0
2017-Aug-14 13:58N 38°43' W 009°07'0 0.0
2017-Aug-14 13:28N 38°43' W 009°07'0 0.0
2017-Aug-14 12:58N 38°43' W 009°07'0 0.0
2017-Aug-14 12:25N 38°43' W 009°07'0 0.0
2017-Aug-14 11:58N 38°43' W 009°07'0 0.0
2017-Aug-14 11:28N 38°43' W 009°07'0 0.0
2017-Aug-14 10:58N 38°43' W 009°07'0 0.0
2017-Aug-14 10:25N 38°43' W 009°07'0 0.0
2017-Aug-14 09:58N 38°43' W 009°07'0 0.0
2017-Aug-14 09:25N 38°43' W 009°07'0 0.0
2017-Aug-14 08:55N 38°43' W 009°07'0 0.0
2017-Aug-14 08:28N 38°43' W 009°07'0 0.0
2017-Aug-14 07:58N 38°43' W 009°07'0 0.0
2017-Aug-14 07:28N 38°43' W 009°07'0 0.0
2017-Aug-14 06:55N 38°43' W 009°07'0 0.0
2017-Aug-14 06:28N 38°43' W 009°07'0 0.0
2017-Aug-14 05:58N 38°43' W 009°07'0 0.0
2017-Aug-14 05:28N 38°43' W 009°07'0 0.0
2017-Aug-14 04:58N 38°43' W 009°07'0 0.0
2017-Aug-14 04:28N 38°43' W 009°07'0 0.0
2017-Aug-14 03:55N 38°43' W 009°07'0 0.0
2017-Aug-14 03:28N 38°43' W 009°07'0 0.0
2017-Aug-14 02:58N 38°43' W 009°07'0 0.0
2017-Aug-14 02:28N 38°43' W 009°07'0 0.0
2017-Aug-14 01:58N 38°43' W 009°07'0 0.0
2017-Aug-14 01:28N 38°43' W 009°07'0 0.0
2017-Aug-14 00:58N 38°43' W 009°07'0 0.0
2017-Aug-14 00:28N 38°43' W 009°07'0 0.0
2017-Aug-13 23:58N 38°43' W 009°07'0 0.0
2017-Aug-13 23:28N 38°43' W 009°07'0 0.0
2017-Aug-13 22:58N 38°43' W 009°07'0 0.0
2017-Aug-13 22:28N 38°43' W 009°07'0 0.0
2017-Aug-13 21:58N 38°43' W 009°07'0 0.0
2017-Aug-13 21:28N 38°43' W 009°07'0 0.0
2017-Aug-13 20:55N 38°43' W 009°07'0 0.0
2017-Aug-13 20:25N 38°43' W 009°07'0 0.0
2017-Aug-13 19:55N 38°43' W 009°07'0 0.0
2017-Aug-13 19:28N 38°43' W 009°07'0 0.0
2017-Aug-13 18:58N 38°43' W 009°07'0 0.0
2017-Aug-13 18:28N 38°43' W 009°07'0 0.0
2017-Aug-13 17:49N 38°43' W 009°07'0 0.0
2017-Aug-13 17:28N 38°43' W 009°07'0 0.0
2017-Aug-13 16:58N 38°43' W 009°07'0 0.0
2017-Aug-13 16:28N 38°43' W 009°07'0 0.0
2017-Aug-13 15:58N 38°43' W 009°07'0 0.0
2017-Aug-13 15:28N 38°43' W 009°07'0 0.0
2017-Aug-13 14:58N 38°43' W 009°07'0 0.0
2017-Aug-13 14:28N 38°43' W 009°07'0 0.0
2017-Aug-13 13:52N 38°43' W 009°07'0 0.0
2017-Aug-13 13:28N 38°43' W 009°07'0 0.0
2017-Aug-13 12:58N 38°43' W 009°07'0 0.0
2017-Aug-13 12:28N 38°43' W 009°07'0 0.0
2017-Aug-13 11:58N 38°43' W 009°07'0 0.0
2017-Aug-13 11:28N 38°43' W 009°07'0 0.0
2017-Aug-13 10:55N 38°43' W 009°07'0 0.0
2017-Aug-13 10:28N 38°43' W 009°07'0 0.0
2017-Aug-13 09:58N 38°43' W 009°07'0 0.0
2017-Aug-13 09:19N 38°43' W 009°07'0 0.0
2017-Aug-13 08:55N 38°43' W 009°07'0 0.0
2017-Aug-13 08:28N 38°43' W 009°07'0 0.0
2017-Aug-13 07:58N 38°43' W 009°07'0 0.0
2017-Aug-13 07:28N 38°43' W 009°07'0 0.0
2017-Aug-13 06:58N 38°43' W 009°07'0 0.0
2017-Aug-13 06:28N 38°43' W 009°07'0 0.0
2017-Aug-13 05:58N 38°43' W 009°07'0 0.0
2017-Aug-13 05:28N 38°43' W 009°07'0 0.0
2017-Aug-13 04:58N 38°43' W 009°07'0 0.0
2017-Aug-13 04:28N 38°43' W 009°07'0 0.0
2017-Aug-13 03:58N 38°43' W 009°07'0 0.0
2017-Aug-13 03:25N 38°43' W 009°07'0 0.0
2017-Aug-13 02:58N 38°43' W 009°07'0 0.0
2017-Aug-13 02:22N 38°43' W 009°07'0 0.0
2017-Aug-13 01:55N 38°43' W 009°07'0 0.0
2017-Aug-13 01:28N 38°43' W 009°07'0 0.0
2017-Aug-13 00:58N 38°43' W 009°07'0 0.0
2017-Aug-13 00:28N 38°43' W 009°07'0 0.0
2017-Aug-12 23:58N 38°43' W 009°07'0 0.0
2017-Aug-12 23:22N 38°43' W 009°07'0 0.0
2017-Aug-12 22:52N 38°43' W 009°07'0 0.0
2017-Aug-12 22:22N 38°43' W 009°07'0 0.0
2017-Aug-12 21:58N 38°43' W 009°07'0 0.0
2017-Aug-12 21:28N 38°43' W 009°07'0 0.0
2017-Aug-12 20:58N 38°43' W 009°07'0 0.0
2017-Aug-12 20:28N 38°43' W 009°07'0 0.0
2017-Aug-12 19:58N 38°43' W 009°07'0 0.0
2017-Aug-12 19:22N 38°43' W 009°07'0 0.0
2017-Aug-12 18:55N 38°43' W 009°07'0 0.0
2017-Aug-12 18:22N 38°43' W 009°07'0 0.0
2017-Aug-12 17:58N 38°43' W 009°07'0 0.0
2017-Aug-12 17:28N 38°43' W 009°07'0 0.0
2017-Aug-12 16:58N 38°43' W 009°07'0 0.0
2017-Aug-12 16:19N 38°43' W 009°07'0 0.0
2017-Aug-12 15:58N 38°43' W 009°07'0 0.0
2017-Aug-12 15:19N 38°43' W 009°07'0 0.0
2017-Aug-12 14:58N 38°43' W 009°07'0 0.0
2017-Aug-12 14:28N 38°43' W 009°07'0 0.0
2017-Aug-12 13:58N 38°43' W 009°07'0 0.0
2017-Aug-12 13:28N 38°43' W 009°07'0 0.0
2017-Aug-12 12:58N 38°43' W 009°07'0 0.0
2017-Aug-12 12:28N 38°43' W 009°07'0 0.0
2017-Aug-12 11:55N 38°43' W 009°07'0 0.0
2017-Aug-12 11:22N 38°43' W 009°07'0 0.0
2017-Aug-12 10:58N 38°43' W 009°07'0 0.0
2017-Aug-12 10:28N 38°43' W 009°07'0 0.0
2017-Aug-12 09:58N 38°43' W 009°07'0 0.0
2017-Aug-12 09:28N 38°43' W 009°07'0 0.0
2017-Aug-12 08:55N 38°43' W 009°07'0 0.0
2017-Aug-12 08:28N 38°43' W 009°07'0 0.0
2017-Aug-12 07:58N 38°43' W 009°07'0 0.0
2017-Aug-12 07:28N 38°43' W 009°07'0 0.0
2017-Aug-12 06:58N 38°43' W 009°07'0 0.0
2017-Aug-12 06:28N 38°43' W 009°07'0 0.0
2017-Aug-12 05:58N 38°43' W 009°07'0 0.0
2017-Aug-12 05:28N 38°43' W 009°07'0 0.0
2017-Aug-12 04:52N 38°43' W 009°07'0 0.0
2017-Aug-12 04:25N 38°43' W 009°07'0 0.0
2017-Aug-12 03:31N 38°43' W 009°07'0 0.0
2017-Aug-12 03:28N 38°43' W 009°07'0 0.0
2017-Aug-12 02:55N 38°43' W 009°07'0 0.0
2017-Aug-12 02:28N 38°43' W 009°07'0 0.0
2017-Aug-12 01:55N 38°43' W 009°07'0 0.0
2017-Aug-12 01:28N 38°43' W 009°07'0 0.0
2017-Aug-12 00:58N 38°43' W 009°07'0 0.0
2017-Aug-12 00:28N 38°43' W 009°07'0 0.0
2017-Aug-11 23:58N 38°43' W 009°07'0 0.0
2017-Aug-11 23:22N 38°43' W 009°07'0 0.0
2017-Aug-11 22:58N 38°43' W 009°07'0 0.0
2017-Aug-11 22:28N 38°43' W 009°07'0 0.0
2017-Aug-11 21:58N 38°43' W 009°07'0 0.0
2017-Aug-11 21:25N 38°43' W 009°07'0 0.0
2017-Aug-11 20:58N 38°43' W 009°07'0 0.0
2017-Aug-11 20:28N 38°43' W 009°07'0 0.0
2017-Aug-11 19:55N 38°43' W 009°07'0 0.0
2017-Aug-11 19:28N 38°43' W 009°07'0 0.0
2017-Aug-11 17:19N 38°43' W 009°07'0 0.0
2017-Aug-11 16:55N 38°43' W 009°07'0 0.0
2017-Aug-11 16:28N 38°43' W 009°07'0 0.0
2017-Aug-11 15:58N 38°43' W 009°07'0 0.0
2017-Aug-11 15:28N 38°43' W 009°07'0 0.0
2017-Aug-11 14:58N 38°43' W 009°07'0 0.0
2017-Aug-11 13:58N 38°43' W 009°07'0 0.0
2017-Aug-11 13:25N 38°43' W 009°07'0 0.0
2017-Aug-11 12:58N 38°43' W 009°07'0 0.0
2017-Aug-11 12:25N 38°43' W 009°07'0 0.0
2017-Aug-11 11:58N 38°43' W 009°07'0 0.0
2017-Aug-11 11:22N 38°43' W 009°07'0 0.0
2017-Aug-11 10:58N 38°43' W 009°07'0 0.0
2017-Aug-11 10:25N 38°43' W 009°07'0 0.0
2017-Aug-11 09:58N 38°43' W 009°07'0 0.0
2017-Aug-11 09:25N 38°43' W 009°07'0 0.0
2017-Aug-11 08:58N 38°43' W 009°07'0 0.0
2017-Aug-11 08:22N 38°43' W 009°07'0 0.0
2017-Aug-11 07:58N 38°43' W 009°07'0 0.0
2017-Aug-11 07:28N 38°43' W 009°07'0 0.0
2017-Aug-11 06:58N 38°43' W 009°07'0 0.0
2017-Aug-11 06:28N 38°43' W 009°07'0 0.0
2017-Aug-11 05:58N 38°43' W 009°07'0 0.0
2017-Aug-11 05:22N 38°43' W 009°07'0 0.0
2017-Aug-11 04:58N 38°43' W 009°07'0 0.0
2017-Aug-11 04:28N 38°43' W 009°07'0 0.0
2017-Aug-11 03:58N 38°43' W 009°07'0 0.0
2017-Aug-11 03:28N 38°43' W 009°07'  
Track history (hours):
 
Tides and Currents Weather Stations Pressure Air Temp Water Temp Dewpoint Dewpoint Depression Visibility Wind Speed Wind Dir Waves Ship Positions

Chaves

Last reported at 2017-Aug-21 03:10 UTC. Time now 2017-Aug-23 11:56 UTC.
Position N 36°44' E 001°02'.

Length 90 m; draft 6 m.

Type: Ship. MMSI: 255803660.

Date/timePositionNaut miles runAvg speedWind from/ knotsBaromVisibWave heightAir tempDewpointWater temp
2017-Aug-21 03:10N 36°44' E 001°02'4 9.6
2017-Aug-21 02:47N 36°44' E 000°58'4 9.3
2017-Aug-21 02:22N 36°43' E 000°53'3 9.2
2017-Aug-21 02:00N 36°43' E 000°48'7 9.3
2017-Aug-21 01:14N 36°42' E 000°40'2 9.3
2017-Aug-21 00:59N 36°42' E 000°37'6 9.0
2017-Aug-21 00:19N 36°41' E 000°29'3 8.7
2017-Aug-21 00:00N 36°41' E 000°26'4 8.5
2017-Aug-20 23:29N 36°40' E 000°20'4 8.2
2017-Aug-20 23:00N 36°40' E 000°16'264 9.2
2017-Aug-19 18:22N 36°01' W 005°08'4 9.6
2017-Aug-19 18:00N 36°00' W 005°13'5 9.9
2017-Aug-19 17:31N 35°57' W 005°17'4 6.8
2017-Aug-19 16:59N 35°54' W 005°19'0 0.1
2017-Aug-19 16:29N 35°54' W 005°19'0 0.0
2017-Aug-19 15:59N 35°54' W 005°19'0 0.0
2017-Aug-19 15:29N 35°54' W 005°19'0 0.0
2017-Aug-19 14:59N 35°54' W 005°19'0 0.0
2017-Aug-19 13:59N 35°54' W 005°19'0 0.0
2017-Aug-19 13:29N 35°54' W 005°19'1 1.1
2017-Aug-19 13:00N 35°54' W 005°18'2 3.0
2017-Aug-19 12:30N 35°55' W 005°18'0 0.8
2017-Aug-19 12:00N 35°55' W 005°18'4 8.9
2017-Aug-19 11:30N 35°57' W 005°23'510.5
2017-Aug-19 11:00N 35°56' W 005°30'60 9.0
2017-Aug-19 04:24N 36°04' W 006°43'410.7
2017-Aug-19 04:00N 36°06' W 006°48'510.8
2017-Aug-19 03:30N 36°08' W 006°54'510.6
2017-Aug-19 03:00N 36°09' W 007°01'710.4
2017-Aug-19 02:18N 36°11' W 007°09'310.2
2017-Aug-19 02:00N 36°11' W 007°13'7 9.9
2017-Aug-19 01:16N 36°13' W 007°22'3 9.9
2017-Aug-19 00:56N 36°14' W 007°26'510.2
2017-Aug-19 00:28N 36°15' W 007°31'510.3
2017-Aug-19 00:00N 36°16' W 007°37'510.1
2017-Aug-18 23:30N 36°18' W 007°43'510.1
2017-Aug-18 23:00N 36°19' W 007°49'5 9.9
2017-Aug-18 22:30N 36°20' W 007°55'1010.0
2017-Aug-18 21:29N 36°22' W 008°08'6 9.8
2017-Aug-18 20:54N 36°23' W 008°15'4 9.7
2017-Aug-18 20:30N 36°24' W 008°19'7 9.9
2017-Aug-18 19:48N 36°25' W 008°28'3 9.9
2017-Aug-18 19:30N 36°26' W 008°31'5 9.9
2017-Aug-18 19:00N 36°27' W 008°37'810.0
2017-Aug-18 18:11N 36°29' W 008°47'2 9.9
2017-Aug-18 18:00N 36°29' W 008°49'5 9.9
2017-Aug-18 17:30N 36°30' W 008°55'5 9.9
2017-Aug-18 17:00N 36°31' W 009°01'510.3
2017-Aug-18 16:29N 36°32' W 009°08'1410.1
2017-Aug-18 15:07N 36°40' W 009°23'110.6
2017-Aug-18 15:00N 36°41' W 009°24'610.6
2017-Aug-18 14:27N 36°45' W 009°29'1410.3
2017-Aug-18 13:07N 36°58' W 009°35'31 9.8
2017-Aug-18 09:58N 37°27' W 009°46'5 9.8
2017-Aug-18 09:25N 37°33' W 009°47'5 9.5
2017-Aug-18 08:55N 37°37' W 009°48'26 9.6
2017-Aug-18 06:13N 38°03' W 009°54'2 9.4
2017-Aug-18 06:00N 38°05' W 009°55'5 9.4
2017-Aug-18 05:29N 38°10' W 009°56'4 9.3
2017-Aug-18 05:00N 38°14' W 009°58'5 9.3
2017-Aug-18 04:30N 38°18' W 009°59'5 9.3
2017-Aug-18 03:58N 38°23' W 010°01'5 9.6
2017-Aug-18 03:30N 38°28' W 010°02'510.1
2017-Aug-18 03:00N 38°32' W 010°04'7 9.9
2017-Aug-18 02:20N 38°39' W 010°05'310.0
2017-Aug-18 02:00N 38°42' W 010°06'5 9.8
2017-Aug-18 01:30N 38°47' W 010°06'510.1
2017-Aug-18 01:00N 38°52' W 010°06'510.1
2017-Aug-18 00:30N 38°56' W 010°02'5 9.9
2017-Aug-18 00:00N 39°00' W 009°59'5 9.7
2017-Aug-17 23:30N 39°04' W 009°55'5 9.9
2017-Aug-17 23:00N 39°08' W 009°51'5 9.7
2017-Aug-17 22:30N 39°12' W 009°47'6 9.8
2017-Aug-17 21:55N 39°17' W 009°43'410.1
2017-Aug-17 21:30N 39°21' W 009°43'510.2
2017-Aug-17 21:00N 39°26' W 009°43'9 9.5
2017-Aug-17 20:04N 39°34' W 009°38'110.2
2017-Aug-17 20:00N 39°34' W 009°37'910.2
2017-Aug-17 19:10N 39°41' W 009°30'410.0
2017-Aug-17 18:46N 39°44' W 009°27'310.1
2017-Aug-17 18:30N 39°46' W 009°25'510.1
2017-Aug-17 18:00N 39°50' W 009°20'5 9.9
2017-Aug-17 17:30N 39°54' W 009°16'1710.0
2017-Aug-17 15:50N 40°06' W 009°02'  
2017-Aug-15 03:28N 39°45' W 009°23'510.4
2017-Aug-15 03:00N 39°42' W 009°28'810.4
2017-Aug-15 02:15N 39°36' W 009°35'510.8
2017-Aug-15 01:46N 39°32' W 009°40'310.9
2017-Aug-15 01:30N 39°30' W 009°42'510.8
2017-Aug-15 01:00N 39°25' W 009°43'510.7
2017-Aug-15 00:30N 39°20' W 009°43'510.1
2017-Aug-15 00:00N 39°14' W 009°43'510.7
2017-Aug-14 23:30N 39°09' W 009°43'510.5
2017-Aug-14 23:01N 39°04' W 009°43'510.6
2017-Aug-14 22:30N 38°59' W 009°43'510.4
2017-Aug-14 22:00N 38°53' W 009°43'510.4
2017-Aug-14 21:30N 38°48' W 009°43'510.1
2017-Aug-14 21:00N 38°43' W 009°42'5 9.9
2017-Aug-14 20:30N 38°38' W 009°41'510.9
2017-Aug-14 20:00N 38°38' W 009°34'510.8
2017-Aug-14 19:30N 38°37' W 009°27'5 9.9
2017-Aug-14 19:00N 38°38' W 009°21'5 9.2
2017-Aug-14 18:30N 38°41' W 009°16'4 8.1
2017-Aug-14 18:00N 38°41' W 009°11'4 7.3
2017-Aug-14 17:30N 38°43' W 009°07'0 0.2
2017-Aug-14 16:55N 38°43' W 009°07'0 0.0
2017-Aug-14 16:28N 38°43' W 009°07'0 0.0
2017-Aug-14 15:58N 38°43' W 009°07'0 0.0
2017-Aug-14 15:28N 38°43' W 009°07'0 0.0
2017-Aug-14 14:58N 38°43' W 009°07'0 0.0
2017-Aug-14 14:28N 38°43' W 009°07'0 0.0
2017-Aug-14 13:58N 38°43' W 009°07'0 0.0
2017-Aug-14 13:28N 38°43' W 009°07'0 0.0
2017-Aug-14 12:58N 38°43' W 009°07'0 0.0
2017-Aug-14 12:25N 38°43' W 009°07'0 0.0
2017-Aug-14 11:58N 38°43' W 009°07'0 0.0
2017-Aug-14 11:28N 38°43' W 009°07'0 0.0
2017-Aug-14 10:58N 38°43' W 009°07'0 0.0
2017-Aug-14 10:25N 38°43' W 009°07'0 0.0
2017-Aug-14 09:58N 38°43' W 009°07'0 0.0
2017-Aug-14 09:25N 38°43' W 009°07'0 0.0
2017-Aug-14 08:55N 38°43' W 009°07'0 0.0
2017-Aug-14 08:28N 38°43' W 009°07'0 0.0
2017-Aug-14 07:58N 38°43' W 009°07'0 0.0
2017-Aug-14 07:28N 38°43' W 009°07'0 0.0
2017-Aug-14 06:55N 38°43' W 009°07'0 0.0
2017-Aug-14 06:28N 38°43' W 009°07'0 0.0
2017-Aug-14 05:58N 38°43' W 009°07'0 0.0
2017-Aug-14 05:28N 38°43' W 009°07'0 0.0
2017-Aug-14 04:58N 38°43' W 009°07'0 0.0
2017-Aug-14 04:28N 38°43' W 009°07'0 0.0
2017-Aug-14 03:55N 38°43' W 009°07'0 0.0
2017-Aug-14 03:28N 38°43' W 009°07'0 0.0
2017-Aug-14 02:58N 38°43' W 009°07'0 0.0
2017-Aug-14 02:28N 38°43' W 009°07'0 0.0
2017-Aug-14 01:58N 38°43' W 009°07'0 0.0
2017-Aug-14 01:28N 38°43' W 009°07'0 0.0
2017-Aug-14 00:58N 38°43' W 009°07'0 0.0
2017-Aug-14 00:28N 38°43' W 009°07'0 0.0
2017-Aug-13 23:58N 38°43' W 009°07'0 0.0
2017-Aug-13 23:28N 38°43' W 009°07'0 0.0
2017-Aug-13 22:58N 38°43' W 009°07'0 0.0
2017-Aug-13 22:28N 38°43' W 009°07'0 0.0
2017-Aug-13 21:58N 38°43' W 009°07'0 0.0
2017-Aug-13 21:28N 38°43' W 009°07'0 0.0
2017-Aug-13 20:55N 38°43' W 009°07'0 0.0
2017-Aug-13 20:25N 38°43' W 009°07'0 0.0
2017-Aug-13 19:55N 38°43' W 009°07'0 0.0
2017-Aug-13 19:28N 38°43' W 009°07'0 0.0
2017-Aug-13 18:58N 38°43' W 009°07'0 0.0
2017-Aug-13 18:28N 38°43' W 009°07'0 0.0
2017-Aug-13 17:49N 38°43' W 009°07'0 0.0
2017-Aug-13 17:28N 38°43' W 009°07'0 0.0
2017-Aug-13 16:58N 38°43' W 009°07'0 0.0
2017-Aug-13 16:28N 38°43' W 009°07'0 0.0
2017-Aug-13 15:58N 38°43' W 009°07'0 0.0
2017-Aug-13 15:28N 38°43' W 009°07'0 0.0
2017-Aug-13 14:58N 38°43' W 009°07'0 0.0
2017-Aug-13 14:28N 38°43' W 009°07'0 0.0
2017-Aug-13 13:52N 38°43' W 009°07'0 0.0
2017-Aug-13 13:28N 38°43' W 009°07'0 0.0
2017-Aug-13 12:58N 38°43' W 009°07'0 0.0
2017-Aug-13 12:28N 38°43' W 009°07'0 0.0
2017-Aug-13 11:58N 38°43' W 009°07'0 0.0
2017-Aug-13 11:28N 38°43' W 009°07'0 0.0
2017-Aug-13 10:55N 38°43' W 009°07'0 0.0
2017-Aug-13 10:28N 38°43' W 009°07'0 0.0
2017-Aug-13 09:58N 38°43' W 009°07'0 0.0
2017-Aug-13 09:19N 38°43' W 009°07'0 0.0
2017-Aug-13 08:55N 38°43' W 009°07'0 0.0
2017-Aug-13 08:28N 38°43' W 009°07'0 0.0
2017-Aug-13 07:58N 38°43' W 009°07'0 0.0
2017-Aug-13 07:28N 38°43' W 009°07'0 0.0
2017-Aug-13 06:58N 38°43' W 009°07'0 0.0
2017-Aug-13 06:28N 38°43' W 009°07'0 0.0
2017-Aug-13 05:58N 38°43' W 009°07'0 0.0
2017-Aug-13 05:28N 38°43' W 009°07'0 0.0
2017-Aug-13 04:58N 38°43' W 009°07'0 0.0
2017-Aug-13 04:28N 38°43' W 009°07'0 0.0
2017-Aug-13 03:58N 38°43' W 009°07'0 0.0
2017-Aug-13 03:25N 38°43' W 009°07'0 0.0
2017-Aug-13 02:58N 38°43' W 009°07'0 0.0
2017-Aug-13 02:22N 38°43' W 009°07'0 0.0
2017-Aug-13 01:55N 38°43' W 009°07'0 0.0
2017-Aug-13 01:28N 38°43' W 009°07'0 0.0
2017-Aug-13 00:58N 38°43' W 009°07'0 0.0
2017-Aug-13 00:28N 38°43' W 009°07'0 0.0
2017-Aug-12 23:58N 38°43' W 009°07'0 0.0
2017-Aug-12 23:22N 38°43' W 009°07'0 0.0
2017-Aug-12 22:52N 38°43' W 009°07'0 0.0
2017-Aug-12 22:22N 38°43' W 009°07'0 0.0
2017-Aug-12 21:58N 38°43' W 009°07'0 0.0
2017-Aug-12 21:28N 38°43' W 009°07'0 0.0
2017-Aug-12 20:58N 38°43' W 009°07'0 0.0
2017-Aug-12 20:28N 38°43' W 009°07'0 0.0
2017-Aug-12 19:58N 38°43' W 009°07'0 0.0
2017-Aug-12 19:22N 38°43' W 009°07'0 0.0
2017-Aug-12 18:55N 38°43' W 009°07'0 0.0
2017-Aug-12 18:22N 38°43' W 009°07'0 0.0
2017-Aug-12 17:58N 38°43' W 009°07'0 0.0
2017-Aug-12 17:28N 38°43' W 009°07'0 0.0
2017-Aug-12 16:58N 38°43' W 009°07'0 0.0
2017-Aug-12 16:19N 38°43' W 009°07'0 0.0
2017-Aug-12 15:58N 38°43' W 009°07'0 0.0
2017-Aug-12 15:19N 38°43' W 009°07'0 0.0
2017-Aug-12 14:58N 38°43' W 009°07'0 0.0
2017-Aug-12 14:28N 38°43' W 009°07'0 0.0
2017-Aug-12 13:58N 38°43' W 009°07'0 0.0
2017-Aug-12 13:28N 38°43' W 009°07'0 0.0
2017-Aug-12 12:58N 38°43' W 009°07'0 0.0
2017-Aug-12 12:28N 38°43' W 009°07'0 0.0
2017-Aug-12 11:55N 38°43' W 009°07'0 0.0
2017-Aug-12 11:22N 38°43' W 009°07'0 0.0
2017-Aug-12 10:58N 38°43' W 009°07'0 0.0
2017-Aug-12 10:28N 38°43' W 009°07'0 0.0
2017-Aug-12 09:58N 38°43' W 009°07'0 0.0
2017-Aug-12 09:28N 38°43' W 009°07'0 0.0
2017-Aug-12 08:55N 38°43' W 009°07'0 0.0
2017-Aug-12 08:28N 38°43' W 009°07'0 0.0
2017-Aug-12 07:58N 38°43' W 009°07'0 0.0
2017-Aug-12 07:28N 38°43' W 009°07'0 0.0
2017-Aug-12 06:58N 38°43' W 009°07'0 0.0
2017-Aug-12 06:28N 38°43' W 009°07'0 0.0
2017-Aug-12 05:58N 38°43' W 009°07'0 0.0
2017-Aug-12 05:28N 38°43' W 009°07'0 0.0
2017-Aug-12 04:52N 38°43' W 009°07'0 0.0
2017-Aug-12 04:25N 38°43' W 009°07'0 0.0
2017-Aug-12 03:31N 38°43' W 009°07'0 0.0
2017-Aug-12 03:28N 38°43' W 009°07'0 0.0
2017-Aug-12 02:55N 38°43' W 009°07'0 0.0
2017-Aug-12 02:28N 38°43' W 009°07'0 0.0
2017-Aug-12 01:55N 38°43' W 009°07'0 0.0
2017-Aug-12 01:28N 38°43' W 009°07'0 0.0
2017-Aug-12 00:58N 38°43' W 009°07'0 0.0
2017-Aug-12 00:28N 38°43' W 009°07'0 0.0
2017-Aug-11 23:58N 38°43' W 009°07'0 0.0
2017-Aug-11 23:22N 38°43' W 009°07'0 0.0
2017-Aug-11 22:58N 38°43' W 009°07'0 0.0
2017-Aug-11 22:28N 38°43' W 009°07'0 0.0
2017-Aug-11 21:58N 38°43' W 009°07'0 0.0
2017-Aug-11 21:25N 38°43' W 009°07'0 0.0
2017-Aug-11 20:58N 38°43' W 009°07'0 0.0
2017-Aug-11 20:28N 38°43' W 009°07'0 0.0
2017-Aug-11 19:55N 38°43' W 009°07'0 0.0
2017-Aug-11 19:28N 38°43' W 009°07'0 0.0
2017-Aug-11 17:19N 38°43' W 009°07'0 0.0
2017-Aug-11 16:55N 38°43' W 009°07'0 0.0
2017-Aug-11 16:28N 38°43' W 009°07'0 0.0
2017-Aug-11 15:58N 38°43' W 009°07'0 0.0
2017-Aug-11 15:28N 38°43' W 009°07'0 0.0
2017-Aug-11 14:58N 38°43' W 009°07'0 0.0
2017-Aug-11 13:58N 38°43' W 009°07'0 0.0
2017-Aug-11 13:25N 38°43' W 009°07'0 0.0
2017-Aug-11 12:58N 38°43' W 009°07'0 0.0
2017-Aug-11 12:25N 38°43' W 009°07'0 0.0
2017-Aug-11 11:58N 38°43' W 009°07'0 0.0
2017-Aug-11 11:22N 38°43' W 009°07'0 0.0
2017-Aug-11 10:58N 38°43' W 009°07'0 0.0
2017-Aug-11 10:25N 38°43' W 009°07'0 0.0
2017-Aug-11 09:58N 38°43' W 009°07'0 0.0
2017-Aug-11 09:25N 38°43' W 009°07'0 0.0
2017-Aug-11 08:58N 38°43' W 009°07'0 0.0
2017-Aug-11 08:22N 38°43' W 009°07'0 0.0
2017-Aug-11 07:58N 38°43' W 009°07'0 0.0
2017-Aug-11 07:28N 38°43' W 009°07'0 0.0
2017-Aug-11 06:58N 38°43' W 009°07'0 0.0
2017-Aug-11 06:28N 38°43' W 009°07'0 0.0
2017-Aug-11 05:58N 38°43' W 009°07'0 0.0
2017-Aug-11 05:22N 38°43' W 009°07'0 0.0
2017-Aug-11 04:58N 38°43' W 009°07'0 0.0
2017-Aug-11 04:28N 38°43' W 009°07'0 0.0
2017-Aug-11 03:58N 38°43' W 009°07'0 0.0
2017-Aug-11 03:28N 38°43' W 009°07'  

Dump ship's entire track history